Airfield :







YOU CAN JOIN US ON...

 
LOGIN :

Register | Disclaimer

   EN    FR    IT 

 









Legend :    VFR   Marginal VFR   IFR   Intensive IFR   Very Intensive IFR
Visi :
Ceiling :
>= 8 km
>= 3000ft
5 to 8 km
1000 to 3000 ft
1500m to 5 km
500 to 1000 ft
800 to 1500m
200 to 500 ft
< 800m
< 200 ft
Symbols :   Thunderstorms  Fog  Heavy snow  Heavy precipitations  Wind > 20 kt







- Airport Elevation : 165 ft
- IATA code : SFJ


BGSF - KangerLussuaq

CURRENT METAR :
  • 250050Z AUTO 07010KT 9999NDV BKN055/// OVC075/// 11/05 Q1015

EXPIRED METARs :
  • 242350Z AUTO 05010KT 9999NDV BKN050/// OVC080/// 12/05 Q1014
  • 242250Z AUTO 05009KT 9999NDV BKN047/// OVC070/// 12/05 Q1014

TAF TAF BGSF
Valid from the 25 at 00:00 until the 26 at 06:00 UTC


242247Z 2500/2606 VRB08KT 9999 FEW060 BKN100
TEMPO 2500/2512 BKN050
TEMPO 2512/2606 -RA BKN025
BGGL FIR / North America



MET'MAP, your aeronautical weather chart ! - Copyright ORBIFLY December 2007 - Disclaimer

ORBIFLY MET'MAP TEAM :

Programming & Development : Alexandra Zaïnal
Concept & Development : Baudouin d'Aumeries
Co-Development & Prog : Marc-Olivier Méhu
Technical & hardware support : Manuel Goepfert

Contact : metmap@orbifly.com




SOURCES & CREDITS :

   NOAA